sensor_id;sensor_type;location;lat;lon;timestamp;P1;durP1;ratioP1;P2;durP2;ratioP2
38851;SDS011;24605;50.092;9.182;2022-09-20T00:02:05;8.05;;;2.03;;
38851;SDS011;24605;50.092;9.182;2022-09-20T00:04:32;7.47;;;1.73;;
38851;SDS011;24605;50.092;9.182;2022-09-20T00:06:58;10.05;;;1.60;;
38851;SDS011;24605;50.092;9.182;2022-09-20T00:09:24;5.93;;;1.35;;
38851;SDS011;24605;50.092;9.182;2022-09-20T00:11:52;10.70;;;2.03;;
38851;SDS011;24605;50.092;9.182;2022-09-20T00:14:19;6.15;;;1.70;;
38851;SDS011;24605;50.092;9.182;2022-09-20T00:16:45;5.07;;;1.35;;
38851;SDS011;24605;50.092;9.182;2022-09-20T00:19:14;5.53;;;1.48;;
38851;SDS011;24605;50.092;9.182;2022-09-20T00:21:43;6.40;;;1.65;;
38851;SDS011;24605;50.092;9.182;2022-09-20T00:24:09;8.82;;;1.67;;
38851;SDS011;24605;50.092;9.182;2022-09-20T00:26:36;5.85;;;1.58;;
38851;SDS011;24605;50.092;9.182;2022-09-20T00:29:04;10.30;;;1.88;;
38851;SDS011;24605;50.092;9.182;2022-09-20T00:31:30;7.72;;;1.85;;
38851;SDS011;24605;50.092;9.182;2022-09-20T00:33:57;12.15;;;1.83;;
38851;SDS011;24605;50.092;9.182;2022-09-20T00:36:42;14.57;;;1.85;;
38851;SDS011;24605;50.092;9.182;2022-09-20T00:39:09;6.75;;;1.55;;
38851;SDS011;24605;50.092;9.182;2022-09-20T00:41:37;8.95;;;1.90;;
38851;SDS011;24605;50.092;9.182;2022-09-20T00:47:04;5.38;;;1.83;;
38851;SDS011;24605;50.092;9.182;2022-09-20T00:49:36;10.73;;;1.90;;
38851;SDS011;24605;50.092;9.182;2022-09-20T00:52:03;11.95;;;2.10;;
38851;SDS011;24605;50.092;9.182;2022-09-20T00:54:30;5.28;;;1.52;;
38851;SDS011;24605;50.092;9.182;2022-09-20T00:56:56;9.50;;;1.88;;
38851;SDS011;24605;50.092;9.182;2022-09-20T00:59:24;7.88;;;1.60;;
38851;SDS011;24605;50.092;9.182;2022-09-20T01:01:55;10.90;;;1.98;;
38851;SDS011;24605;50.092;9.182;2022-09-20T01:04:28;6.60;;;1.60;;
38851;SDS011;24605;50.092;9.182;2022-09-20T01:06:56;7.10;;;1.83;;
38851;SDS011;24605;50.092;9.182;2022-09-20T01:09:25;12.00;;;2.15;;
38851;SDS011;24605;50.092;9.182;2022-09-20T01:11:52;9.23;;;2.10;;
38851;SDS011;24605;50.092;9.182;2022-09-20T01:14:20;9.68;;;1.83;;
38851;SDS011;24605;50.092;9.182;2022-09-20T01:16:48;7.68;;;1.65;;
38851;SDS011;24605;50.092;9.182;2022-09-20T01:19:16;10.57;;;1.60;;
38851;SDS011;24605;50.092;9.182;2022-09-20T01:21:46;9.70;;;1.88;;
38851;SDS011;24605;50.092;9.182;2022-09-20T01:24:14;9.48;;;1.98;;
38851;SDS011;24605;50.092;9.182;2022-09-20T01:29:50;7.45;;;1.92;;
38851;SDS011;24605;50.092;9.182;2022-09-20T01:32:27;9.27;;;2.28;;
38851;SDS011;24605;50.092;9.182;2022-09-20T01:35:02;7.15;;;2.15;;
38851;SDS011;24605;50.092;9.182;2022-09-20T01:37:31;7.78;;;1.80;;
38851;SDS011;24605;50.092;9.182;2022-09-20T01:40:07;6.78;;;1.70;;
38851;SDS011;24605;50.092;9.182;2022-09-20T01:42:44;6.75;;;2.28;;
38851;SDS011;24605;50.092;9.182;2022-09-20T01:45:19;7.53;;;2.00;;
38851;SDS011;24605;50.092;9.182;2022-09-20T01:47:50;9.10;;;2.05;;
38851;SDS011;24605;50.092;9.182;2022-09-20T01:50:31;6.55;;;2.55;;
38851;SDS011;24605;50.092;9.182;2022-09-20T01:53:10;8.57;;;2.20;;
38851;SDS011;24605;50.092;9.182;2022-09-20T01:55:59;10.93;;;2.90;;
38851;SDS011;24605;50.092;9.182;2022-09-20T01:58:55;6.68;;;2.65;;
38851;SDS011;24605;50.092;9.182;2022-09-20T02:01:54;13.85;;;3.63;;
38851;SDS011;24605;50.092;9.182;2022-09-20T02:04:57;7.13;;;2.95;;
38851;SDS011;24605;50.092;9.182;2022-09-20T02:07:46;9.45;;;3.10;;
38851;SDS011;24605;50.092;9.182;2022-09-20T02:10:40;7.82;;;3.10;;
38851;SDS011;24605;50.092;9.182;2022-09-20T02:13:22;10.73;;;3.30;;
38851;SDS011;24605;50.092;9.182;2022-09-20T02:19:05;13.88;;;3.30;;
38851;SDS011;24605;50.092;9.182;2022-09-20T02:21:46;10.00;;;3.13;;
38851;SDS011;24605;50.092;9.182;2022-09-20T02:24:22;16.40;;;4.25;;
38851;SDS011;24605;50.092;9.182;2022-09-20T02:26:56;11.93;;;3.70;;
38851;SDS011;24605;50.092;9.182;2022-09-20T02:29:34;12.13;;;3.55;;
38851;SDS011;24605;50.092;9.182;2022-09-20T02:32:11;7.38;;;3.60;;
38851;SDS011;24605;50.092;9.182;2022-09-20T02:34:56;9.82;;;3.65;;
38851;SDS011;24605;50.092;9.182;2022-09-20T02:37:44;12.85;;;4.20;;
38851;SDS011;24605;50.092;9.182;2022-09-20T02:40:38;11.98;;;4.03;;
38851;SDS011;24605;50.092;9.182;2022-09-20T02:43:20;8.60;;;3.70;;
38851;SDS011;24605;50.092;9.182;2022-09-20T02:45:57;11.68;;;3.63;;
38851;SDS011;24605;50.092;9.182;2022-09-20T02:48:28;16.08;;;4.05;;
38851;SDS011;24605;50.092;9.182;2022-09-20T02:51:04;10.93;;;4.07;;
38851;SDS011;24605;50.092;9.182;2022-09-20T02:53:41;12.20;;;4.32;;
38851;SDS011;24605;50.092;9.182;2022-09-20T02:56:20;9.20;;;4.07;;
38851;SDS011;24605;50.092;9.182;2022-09-20T02:58:55;17.45;;;4.13;;
38851;SDS011;24605;50.092;9.182;2022-09-20T03:01:40;14.98;;;4.47;;
38851;SDS011;24605;50.092;9.182;2022-09-20T03:04:17;15.25;;;4.72;;
38851;SDS011;24605;50.092;9.182;2022-09-20T03:06:53;18.30;;;5.38;;
38851;SDS011;24605;50.092;9.182;2022-09-20T03:09:27;15.32;;;5.15;;
38851;SDS011;24605;50.092;9.182;2022-09-20T03:12:01;16.25;;;5.32;;
38851;SDS011;24605;50.092;9.182;2022-09-20T03:14:39;11.40;;;5.00;;
38851;SDS011;24605;50.092;9.182;2022-09-20T03:17:15;12.97;;;4.10;;
38851;SDS011;24605;50.092;9.182;2022-09-20T03:19:50;13.13;;;4.70;;
38851;SDS011;24605;50.092;9.182;2022-09-20T03:22:33;12.85;;;4.30;;
38851;SDS011;24605;50.092;9.182;2022-09-20T03:25:13;10.27;;;4.70;;
38851;SDS011;24605;50.092;9.182;2022-09-20T03:27:54;16.20;;;4.05;;
38851;SDS011;24605;50.092;9.182;2022-09-20T03:30:33;15.80;;;4.22;;
38851;SDS011;24605;50.092;9.182;2022-09-20T03:33:09;13.90;;;4.30;;
38851;SDS011;24605;50.092;9.182;2022-09-20T03:35:43;17.48;;;4.55;;
38851;SDS011;24605;50.092;9.182;2022-09-20T03:38:27;11.85;;;4.32;;
38851;SDS011;24605;50.092;9.182;2022-09-20T03:41:23;16.23;;;5.55;;
38851;SDS011;24605;50.092;9.182;2022-09-20T03:44:05;19.60;;;5.03;;
38851;SDS011;24605;50.092;9.182;2022-09-20T03:46:44;13.13;;;5.43;;
38851;SDS011;24605;50.092;9.182;2022-09-20T03:49:26;20.70;;;5.45;;
38851;SDS011;24605;50.092;9.182;2022-09-20T03:52:08;13.43;;;5.10;;
38851;SDS011;24605;50.092;9.182;2022-09-20T03:54:54;16.80;;;4.28;;
38851;SDS011;24605;50.092;9.182;2022-09-20T03:57:40;18.52;;;5.50;;
38851;SDS011;24605;50.092;9.182;2022-09-20T04:00:20;15.30;;;5.75;;
38851;SDS011;24605;50.092;9.182;2022-09-20T04:02:52;14.68;;;5.20;;
38851;SDS011;24605;50.092;9.182;2022-09-20T04:05:29;13.20;;;5.00;;
38851;SDS011;24605;50.092;9.182;2022-09-20T04:08:04;16.80;;;5.20;;
38851;SDS011;24605;50.092;9.182;2022-09-20T04:10:44;23.98;;;5.30;;
38851;SDS011;24605;50.092;9.182;2022-09-20T04:13:35;19.20;;;7.10;;
38851;SDS011;24605;50.092;9.182;2022-09-20T04:16:09;16.75;;;5.25;;
38851;SDS011;24605;50.092;9.182;2022-09-20T04:18:48;17.33;;;7.95;;
38851;SDS011;24605;50.092;9.182;2022-09-20T04:21:21;17.03;;;6.23;;
38851;SDS011;24605;50.092;9.182;2022-09-20T04:23:55;16.35;;;5.95;;
38851;SDS011;24605;50.092;9.182;2022-09-20T04:26:27;13.77;;;7.88;;
38851;SDS011;24605;50.092;9.182;2022-09-20T04:28:57;22.50;;;11.73;;
38851;SDS011;24605;50.092;9.182;2022-09-20T04:31:38;16.77;;;5.50;;
38851;SDS011;24605;50.092;9.182;2022-09-20T04:34:11;15.55;;;4.50;;
38851;SDS011;24605;50.092;9.182;2022-09-20T04:36:57;17.80;;;5.18;;
38851;SDS011;24605;50.092;9.182;2022-09-20T04:39:30;21.88;;;4.78;;
38851;SDS011;24605;50.092;9.182;2022-09-20T04:42:20;21.35;;;5.70;;
38851;SDS011;24605;50.092;9.182;2022-09-20T04:45:31;13.95;;;4.68;;
38851;SDS011;24605;50.092;9.182;2022-09-20T04:48:25;14.63;;;4.45;;
38851;SDS011;24605;50.092;9.182;2022-09-20T04:57:32;13.68;;;5.25;;
38851;SDS011;24605;50.092;9.182;2022-09-20T05:00:18;13.65;;;4.85;;
38851;SDS011;24605;50.092;9.182;2022-09-20T05:02:55;13.73;;;5.43;;
38851;SDS011;24605;50.092;9.182;2022-09-20T05:05:59;18.02;;;5.40;;
38851;SDS011;24605;50.092;9.182;2022-09-20T05:08:54;16.33;;;5.18;;
38851;SDS011;24605;50.092;9.182;2022-09-20T05:11:46;16.48;;;5.43;;
38851;SDS011;24605;50.092;9.182;2022-09-20T05:14:38;13.80;;;5.32;;
38851;SDS011;24605;50.092;9.182;2022-09-20T05:17:21;13.00;;;5.03;;
38851;SDS011;24605;50.092;9.182;2022-09-20T05:20:02;17.20;;;5.53;;
38851;SDS011;24605;50.092;9.182;2022-09-20T05:22:51;17.58;;;6.03;;
38851;SDS011;24605;50.092;9.182;2022-09-20T05:25:40;19.25;;;5.47;;
38851;SDS011;24605;50.092;9.182;2022-09-20T05:28:17;20.65;;;6.50;;
38851;SDS011;24605;50.092;9.182;2022-09-20T05:30:52;18.20;;;6.47;;
38851;SDS011;24605;50.092;9.182;2022-09-20T05:33:24;15.77;;;6.50;;
38851;SDS011;24605;50.092;9.182;2022-09-20T05:38:31;18.20;;;5.85;;
38851;SDS011;24605;50.092;9.182;2022-09-20T05:41:07;18.20;;;6.43;;
38851;SDS011;24605;50.092;9.182;2022-09-20T05:43:46;17.05;;;6.72;;
38851;SDS011;24605;50.092;9.182;2022-09-20T05:46:24;12.25;;;5.97;;
38851;SDS011;24605;50.092;9.182;2022-09-20T05:49:02;18.73;;;6.22;;
38851;SDS011;24605;50.092;9.182;2022-09-20T05:51:45;16.95;;;7.70;;
38851;SDS011;24605;50.092;9.182;2022-09-20T05:54:28;16.15;;;6.05;;
38851;SDS011;24605;50.092;9.182;2022-09-20T05:57:11;14.70;;;5.72;;
38851;SDS011;24605;50.092;9.182;2022-09-20T05:59:51;14.93;;;5.85;;
38851;SDS011;24605;50.092;9.182;2022-09-20T06:02:36;21.02;;;6.50;;
38851;SDS011;24605;50.092;9.182;2022-09-20T06:05:10;17.65;;;6.72;;
38851;SDS011;24605;50.092;9.182;2022-09-20T06:07:53;13.60;;;5.72;;
38851;SDS011;24605;50.092;9.182;2022-09-20T06:10:51;16.88;;;6.15;;
38851;SDS011;24605;50.092;9.182;2022-09-20T06:13:28;18.00;;;6.47;;
38851;SDS011;24605;50.092;9.182;2022-09-20T06:16:08;17.35;;;6.30;;
38851;SDS011;24605;50.092;9.182;2022-09-20T06:18:44;18.73;;;6.35;;
38851;SDS011;24605;50.092;9.182;2022-09-20T06:21:21;20.42;;;6.25;;
38851;SDS011;24605;50.092;9.182;2022-09-20T06:23:56;18.90;;;5.90;;
38851;SDS011;24605;50.092;9.182;2022-09-20T06:26:25;17.63;;;7.88;;
38851;SDS011;24605;50.092;9.182;2022-09-20T06:28:57;17.38;;;6.93;;
38851;SDS011;24605;50.092;9.182;2022-09-20T06:31:27;16.45;;;5.68;;
38851;SDS011;24605;50.092;9.182;2022-09-20T06:33:56;17.48;;;6.13;;
38851;SDS011;24605;50.092;9.182;2022-09-20T06:36:26;17.17;;;6.47;;
38851;SDS011;24605;50.092;9.182;2022-09-20T06:39:14;17.23;;;5.32;;
38851;SDS011;24605;50.092;9.182;2022-09-20T06:42:06;13.65;;;5.13;;
38851;SDS011;24605;50.092;9.182;2022-09-20T06:44:34;15.68;;;4.97;;
38851;SDS011;24605;50.092;9.182;2022-09-20T06:47:02;15.10;;;4.63;;
38851;SDS011;24605;50.092;9.182;2022-09-20T06:49:33;19.83;;;5.22;;
38851;SDS011;24605;50.092;9.182;2022-09-20T06:52:01;10.80;;;3.95;;
38851;SDS011;24605;50.092;9.182;2022-09-20T06:54:29;10.02;;;3.42;;
38851;SDS011;24605;50.092;9.182;2022-09-20T06:56:56;13.95;;;3.95;;
38851;SDS011;24605;50.092;9.182;2022-09-20T06:59:23;15.27;;;4.28;;
38851;SDS011;24605;50.092;9.182;2022-09-20T07:01:50;11.75;;;4.00;;
38851;SDS011;24605;50.092;9.182;2022-09-20T07:04:17;13.68;;;3.33;;
38851;SDS011;24605;50.092;9.182;2022-09-20T07:06:45;12.48;;;4.32;;
38851;SDS011;24605;50.092;9.182;2022-09-20T07:09:11;12.57;;;4.03;;
38851;SDS011;24605;50.092;9.182;2022-09-20T07:11:37;14.40;;;5.03;;
38851;SDS011;24605;50.092;9.182;2022-09-20T07:14:04;17.17;;;5.40;;
38851;SDS011;24605;50.092;9.182;2022-09-20T07:16:31;13.98;;;5.35;;
38851;SDS011;24605;50.092;9.182;2022-09-20T07:19:00;19.00;;;5.72;;
38851;SDS011;24605;50.092;9.182;2022-09-20T07:21:26;16.08;;;6.20;;
38851;SDS011;24605;50.092;9.182;2022-09-20T07:23:54;17.05;;;5.70;;
38851;SDS011;24605;50.092;9.182;2022-09-20T07:26:22;17.50;;;5.90;;
38851;SDS011;24605;50.092;9.182;2022-09-20T07:28:50;16.77;;;6.60;;
38851;SDS011;24605;50.092;9.182;2022-09-20T07:31:18;20.00;;;5.97;;
38851;SDS011;24605;50.092;9.182;2022-09-20T07:33:46;14.02;;;5.55;;
38851;SDS011;24605;50.092;9.182;2022-09-20T07:36:13;14.35;;;6.18;;
38851;SDS011;24605;50.092;9.182;2022-09-20T07:38:40;19.63;;;5.95;;
38851;SDS011;24605;50.092;9.182;2022-09-20T07:41:09;14.07;;;5.78;;
38851;SDS011;24605;50.092;9.182;2022-09-20T07:43:35;18.10;;;6.10;;
38851;SDS011;24605;50.092;9.182;2022-09-20T07:46:02;15.65;;;5.43;;
38851;SDS011;24605;50.092;9.182;2022-09-20T07:48:29;14.55;;;5.68;;
38851;SDS011;24605;50.092;9.182;2022-09-20T07:50:57;16.02;;;5.80;;
38851;SDS011;24605;50.092;9.182;2022-09-20T07:53:26;16.42;;;6.00;;
38851;SDS011;24605;50.092;9.182;2022-09-20T07:55:57;18.08;;;5.00;;
38851;SDS011;24605;50.092;9.182;2022-09-20T07:58:25;16.67;;;5.20;;
38851;SDS011;24605;50.092;9.182;2022-09-20T08:00:53;14.13;;;5.32;;
38851;SDS011;24605;50.092;9.182;2022-09-20T08:03:19;16.17;;;4.80;;
38851;SDS011;24605;50.092;9.182;2022-09-20T08:05:46;15.95;;;5.43;;
38851;SDS011;24605;50.092;9.182;2022-09-20T08:08:14;15.27;;;5.88;;
38851;SDS011;24605;50.092;9.182;2022-09-20T08:10:41;17.30;;;6.07;;
38851;SDS011;24605;50.092;9.182;2022-09-20T08:13:08;16.73;;;6.20;;
38851;SDS011;24605;50.092;9.182;2022-09-20T08:15:37;16.63;;;5.57;;
38851;SDS011;24605;50.092;9.182;2022-09-20T08:18:04;17.45;;;5.38;;
38851;SDS011;24605;50.092;9.182;2022-09-20T08:20:33;16.15;;;5.38;;
38851;SDS011;24605;50.092;9.182;2022-09-20T08:23:01;15.35;;;5.53;;
38851;SDS011;24605;50.092;9.182;2022-09-20T08:25:28;17.92;;;6.35;;
38851;SDS011;24605;50.092;9.182;2022-09-20T08:27:54;15.30;;;5.45;;
38851;SDS011;24605;50.092;9.182;2022-09-20T08:30:21;19.58;;;6.10;;
38851;SDS011;24605;50.092;9.182;2022-09-20T08:32:49;18.88;;;5.85;;
38851;SDS011;24605;50.092;9.182;2022-09-20T08:35:15;16.17;;;5.75;;
38851;SDS011;24605;50.092;9.182;2022-09-20T08:37:42;20.35;;;5.57;;
38851;SDS011;24605;50.092;9.182;2022-09-20T08:40:09;14.13;;;5.53;;
38851;SDS011;24605;50.092;9.182;2022-09-20T08:42:39;19.65;;;5.63;;
38851;SDS011;24605;50.092;9.182;2022-09-20T08:45:10;15.38;;;5.65;;
38851;SDS011;24605;50.092;9.182;2022-09-20T08:47:43;16.67;;;5.72;;
38851;SDS011;24605;50.092;9.182;2022-09-20T08:50:16;12.40;;;5.57;;
38851;SDS011;24605;50.092;9.182;2022-09-20T08:52:44;12.95;;;5.20;;
38851;SDS011;24605;50.092;9.182;2022-09-20T08:55:13;13.25;;;5.25;;
38851;SDS011;24605;50.092;9.182;2022-09-20T08:57:41;14.38;;;5.68;;
38851;SDS011;24605;50.092;9.182;2022-09-20T09:00:09;22.48;;;5.90;;
38851;SDS011;24605;50.092;9.182;2022-09-20T09:02:42;12.60;;;4.93;;
38851;SDS011;24605;50.092;9.182;2022-09-20T09:05:10;12.65;;;5.65;;
38851;SDS011;24605;50.092;9.182;2022-09-20T09:07:55;15.23;;;6.20;;
38851;SDS011;24605;50.092;9.182;2022-09-20T09:10:22;12.45;;;5.20;;
38851;SDS011;24605;50.092;9.182;2022-09-20T09:12:49;14.63;;;5.15;;
38851;SDS011;24605;50.092;9.182;2022-09-20T09:15:20;12.68;;;5.32;;
38851;SDS011;24605;50.092;9.182;2022-09-20T09:17:51;14.68;;;5.40;;
38851;SDS011;24605;50.092;9.182;2022-09-20T09:20:18;16.25;;;4.60;;
38851;SDS011;24605;50.092;9.182;2022-09-20T09:22:56;12.68;;;6.00;;
38851;SDS011;24605;50.092;9.182;2022-09-20T09:25:25;13.98;;;5.65;;
38851;SDS011;24605;50.092;9.182;2022-09-20T09:27:58;17.30;;;6.70;;
38851;SDS011;24605;50.092;9.182;2022-09-20T09:30:28;14.77;;;6.03;;
38851;SDS011;24605;50.092;9.182;2022-09-20T09:35:41;17.85;;;6.65;;
38851;SDS011;24605;50.092;9.182;2022-09-20T09:38:16;14.82;;;5.97;;
38851;SDS011;24605;50.092;9.182;2022-09-20T09:40:48;13.40;;;6.15;;
38851;SDS011;24605;50.092;9.182;2022-09-20T09:43:19;15.07;;;4.40;;
38851;SDS011;24605;50.092;9.182;2022-09-20T09:45:50;13.30;;;4.93;;
38851;SDS011;24605;50.092;9.182;2022-09-20T09:48:18;15.82;;;4.93;;
38851;SDS011;24605;50.092;9.182;2022-09-20T09:50:47;13.60;;;4.68;;
38851;SDS011;24605;50.092;9.182;2022-09-20T09:53:16;15.25;;;4.45;;
38851;SDS011;24605;50.092;9.182;2022-09-20T09:55:53;12.18;;;4.63;;
38851;SDS011;24605;50.092;9.182;2022-09-20T09:58:34;13.60;;;4.40;;
38851;SDS011;24605;50.092;9.182;2022-09-20T10:01:13;12.90;;;3.95;;
38851;SDS011;24605;50.092;9.182;2022-09-20T10:03:52;15.27;;;4.18;;
38851;SDS011;24605;50.092;9.182;2022-09-20T10:06:27;14.05;;;5.00;;
38851;SDS011;24605;50.092;9.182;2022-09-20T10:11:53;9.68;;;3.25;;
38851;SDS011;24605;50.092;9.182;2022-09-20T10:14:35;10.15;;;3.15;;
38851;SDS011;24605;50.092;9.182;2022-09-20T10:17:26;10.18;;;2.75;;
38851;SDS011;24605;50.092;9.182;2022-09-20T10:20:03;11.55;;;2.70;;
38851;SDS011;24605;50.092;9.182;2022-09-20T10:22:43;9.65;;;2.65;;
38851;SDS011;24605;50.092;9.182;2022-09-20T10:25:22;9.45;;;2.35;;
38851;SDS011;24605;50.092;9.182;2022-09-20T10:28:00;7.47;;;2.30;;
38851;SDS011;24605;50.092;9.182;2022-09-20T10:30:38;10.02;;;3.40;;
38851;SDS011;24605;50.092;9.182;2022-09-20T10:33:24;12.68;;;2.80;;
38851;SDS011;24605;50.092;9.182;2022-09-20T10:36:14;7.38;;;2.83;;
38851;SDS011;24605;50.092;9.182;2022-09-20T10:38:50;8.30;;;2.17;;
38851;SDS011;24605;50.092;9.182;2022-09-20T10:41:28;9.90;;;2.80;;
38851;SDS011;24605;50.092;9.182;2022-09-20T10:47:23;8.05;;;2.33;;
38851;SDS011;24605;50.092;9.182;2022-09-20T10:49:58;11.35;;;2.20;;
38851;SDS011;24605;50.092;9.182;2022-09-20T10:52:34;9.70;;;2.05;;
38851;SDS011;24605;50.092;9.182;2022-09-20T10:55:17;8.90;;;1.83;;
38851;SDS011;24605;50.092;9.182;2022-09-20T10:57:59;7.57;;;2.00;;
38851;SDS011;24605;50.092;9.182;2022-09-20T11:00:42;9.20;;;2.45;;
38851;SDS011;24605;50.092;9.182;2022-09-20T11:03:18;9.82;;;2.72;;
38851;SDS011;24605;50.092;9.182;2022-09-20T11:05:58;10.10;;;2.35;;
38851;SDS011;24605;50.092;9.182;2022-09-20T11:08:32;13.57;;;2.92;;
38851;SDS011;24605;50.092;9.182;2022-09-20T11:11:03;11.02;;;2.60;;
38851;SDS011;24605;50.092;9.182;2022-09-20T11:13:35;11.52;;;2.30;;
38851;SDS011;24605;50.092;9.182;2022-09-20T11:16:08;12.48;;;2.55;;
38851;SDS011;24605;50.092;9.182;2022-09-20T11:18:42;8.80;;;2.40;;
38851;SDS011;24605;50.092;9.182;2022-09-20T11:21:15;11.07;;;2.25;;
38851;SDS011;24605;50.092;9.182;2022-09-20T11:23:48;11.30;;;2.13;;
38851;SDS011;24605;50.092;9.182;2022-09-20T11:26:20;7.45;;;1.90;;
38851;SDS011;24605;50.092;9.182;2022-09-20T11:28:53;10.90;;;2.00;;
38851;SDS011;24605;50.092;9.182;2022-09-20T11:31:23;8.20;;;1.67;;
38851;SDS011;24605;50.092;9.182;2022-09-20T11:33:56;7.38;;;1.92;;
38851;SDS011;24605;50.092;9.182;2022-09-20T11:36:29;8.93;;;1.98;;
38851;SDS011;24605;50.092;9.182;2022-09-20T11:39:04;6.90;;;1.30;;
38851;SDS011;24605;50.092;9.182;2022-09-20T11:41:38;7.57;;;1.63;;
38851;SDS011;24605;50.092;9.182;2022-09-20T11:44:08;5.70;;;1.50;;
38851;SDS011;24605;50.092;9.182;2022-09-20T11:46:39;8.95;;;1.70;;
38851;SDS011;24605;50.092;9.182;2022-09-20T11:49:12;8.60;;;1.20;;
38851;SDS011;24605;50.092;9.182;2022-09-20T11:51:48;7.05;;;1.67;;
38851;SDS011;24605;50.092;9.182;2022-09-20T11:54:31;7.70;;;1.75;;
38851;SDS011;24605;50.092;9.182;2022-09-20T11:57:20;8.05;;;1.70;;
38851;SDS011;24605;50.092;9.182;2022-09-20T11:59:51;5.65;;;1.40;;
38851;SDS011;24605;50.092;9.182;2022-09-20T12:02:21;6.25;;;1.40;;
38851;SDS011;24605;50.092;9.182;2022-09-20T12:04:53;7.95;;;1.40;;
38851;SDS011;24605;50.092;9.182;2022-09-20T12:07:22;6.10;;;1.50;;
38851;SDS011;24605;50.092;9.182;2022-09-20T12:09:52;7.47;;;1.23;;
38851;SDS011;24605;50.092;9.182;2022-09-20T12:12:30;6.90;;;1.40;;
38851;SDS011;24605;50.092;9.182;2022-09-20T12:15:03;8.88;;;1.60;;
38851;SDS011;24605;50.092;9.182;2022-09-20T12:26:35;9.23;;;1.60;;
38851;SDS011;24605;50.092;9.182;2022-09-20T12:32:40;7.03;;;1.30;;
38851;SDS011;24605;50.092;9.182;2022-09-20T12:38:25;7.43;;;1.40;;
38851;SDS011;24605;50.092;9.182;2022-09-20T12:41:01;8.85;;;1.20;;
38851;SDS011;24605;50.092;9.182;2022-09-20T12:43:32;4.88;;;1.30;;
38851;SDS011;24605;50.092;9.182;2022-09-20T12:46:01;9.95;;;1.90;;
38851;SDS011;24605;50.092;9.182;2022-09-20T12:48:31;9.45;;;1.85;;
38851;SDS011;24605;50.092;9.182;2022-09-20T12:51:02;5.85;;;1.60;;
38851;SDS011;24605;50.092;9.182;2022-09-20T12:53:59;7.53;;;1.70;;
38851;SDS011;24605;50.092;9.182;2022-09-20T12:56:27;10.52;;;2.03;;
38851;SDS011;24605;50.092;9.182;2022-09-20T12:58:55;5.90;;;1.30;;
38851;SDS011;24605;50.092;9.182;2022-09-20T13:01:32;7.70;;;1.60;;
38851;SDS011;24605;50.092;9.182;2022-09-20T13:07:31;7.72;;;1.50;;
38851;SDS011;24605;50.092;9.182;2022-09-20T13:10:04;9.68;;;1.80;;
38851;SDS011;24605;50.092;9.182;2022-09-20T13:12:42;6.13;;;1.45;;
38851;SDS011;24605;50.092;9.182;2022-09-20T13:15:12;6.47;;;1.40;;
38851;SDS011;24605;50.092;9.182;2022-09-20T13:17:42;3.72;;;1.25;;
38851;SDS011;24605;50.092;9.182;2022-09-20T13:20:13;4.60;;;1.20;;
38851;SDS011;24605;50.092;9.182;2022-09-20T13:22:44;5.15;;;1.33;;
38851;SDS011;24605;50.092;9.182;2022-09-20T13:25:13;4.50;;;1.25;;
38851;SDS011;24605;50.092;9.182;2022-09-20T13:27:41;8.95;;;1.45;;
38851;SDS011;24605;50.092;9.182;2022-09-20T13:30:16;6.00;;;1.52;;
38851;SDS011;24605;50.092;9.182;2022-09-20T13:32:44;5.13;;;1.10;;
38851;SDS011;24605;50.092;9.182;2022-09-20T13:35:12;3.58;;;1.00;;
38851;SDS011;24605;50.092;9.182;2022-09-20T13:37:46;5.43;;;1.25;;
38851;SDS011;24605;50.092;9.182;2022-09-20T13:40:18;4.38;;;1.10;;
38851;SDS011;24605;50.092;9.182;2022-09-20T13:42:46;4.28;;;0.93;;
38851;SDS011;24605;50.092;9.182;2022-09-20T13:45:13;3.05;;;1.10;;
38851;SDS011;24605;50.092;9.182;2022-09-20T13:47:42;3.55;;;1.00;;
38851;SDS011;24605;50.092;9.182;2022-09-20T13:50:15;3.40;;;1.00;;
38851;SDS011;24605;50.092;9.182;2022-09-20T13:52:47;3.75;;;1.17;;
38851;SDS011;24605;50.092;9.182;2022-09-20T13:55:20;6.88;;;1.13;;
38851;SDS011;24605;50.092;9.182;2022-09-20T13:57:52;2.78;;;0.95;;
38851;SDS011;24605;50.092;9.182;2022-09-20T14:00:20;7.82;;;1.40;;
38851;SDS011;24605;50.092;9.182;2022-09-20T14:02:47;4.68;;;1.13;;
38851;SDS011;24605;50.092;9.182;2022-09-20T14:05:15;3.45;;;1.25;;
38851;SDS011;24605;50.092;9.182;2022-09-20T14:07:44;1.92;;;0.80;;
38851;SDS011;24605;50.092;9.182;2022-09-20T14:10:26;2.67;;;0.98;;
38851;SDS011;24605;50.092;9.182;2022-09-20T14:12:56;3.58;;;0.90;;
38851;SDS011;24605;50.092;9.182;2022-09-20T14:15:32;3.13;;;0.98;;
38851;SDS011;24605;50.092;9.182;2022-09-20T14:18:02;4.25;;;0.90;;
38851;SDS011;24605;50.092;9.182;2022-09-20T14:20:30;5.93;;;1.20;;
38851;SDS011;24605;50.092;9.182;2022-09-20T14:22:58;6.05;;;1.23;;
38851;SDS011;24605;50.092;9.182;2022-09-20T14:25:26;6.10;;;1.05;;
38851;SDS011;24605;50.092;9.182;2022-09-20T14:28:05;5.25;;;1.23;;
38851;SDS011;24605;50.092;9.182;2022-09-20T14:30:41;6.40;;;1.42;;
38851;SDS011;24605;50.092;9.182;2022-09-20T14:33:11;5.70;;;1.25;;
38851;SDS011;24605;50.092;9.182;2022-09-20T14:35:45;6.65;;;2.00;;
38851;SDS011;24605;50.092;9.182;2022-09-20T14:38:12;5.25;;;1.38;;
38851;SDS011;24605;50.092;9.182;2022-09-20T14:40:42;4.78;;;1.27;;
38851;SDS011;24605;50.092;9.182;2022-09-20T14:43:19;5.03;;;1.55;;
38851;SDS011;24605;50.092;9.182;2022-09-20T14:45:50;4.75;;;1.50;;
38851;SDS011;24605;50.092;9.182;2022-09-20T14:48:33;4.57;;;1.00;;
38851;SDS011;24605;50.092;9.182;2022-09-20T14:51:08;5.50;;;1.23;;
38851;SDS011;24605;50.092;9.182;2022-09-20T14:53:46;4.55;;;1.35;;
38851;SDS011;24605;50.092;9.182;2022-09-20T14:56:15;3.05;;;1.00;;
38851;SDS011;24605;50.092;9.182;2022-09-20T14:59:03;4.15;;;1.08;;
38851;SDS011;24605;50.092;9.182;2022-09-20T15:04:20;5.20;;;1.65;;
38851;SDS011;24605;50.092;9.182;2022-09-20T15:06:47;4.63;;;1.20;;
38851;SDS011;24605;50.092;9.182;2022-09-20T15:09:15;5.43;;;1.40;;
38851;SDS011;24605;50.092;9.182;2022-09-20T15:11:44;5.97;;;1.65;;
38851;SDS011;24605;50.092;9.182;2022-09-20T15:14:11;6.07;;;1.55;;
38851;SDS011;24605;50.092;9.182;2022-09-20T15:16:37;5.80;;;1.35;;
38851;SDS011;24605;50.092;9.182;2022-09-20T15:19:03;8.15;;;1.88;;
38851;SDS011;24605;50.092;9.182;2022-09-20T15:21:32;5.10;;;1.25;;
38851;SDS011;24605;50.092;9.182;2022-09-20T15:23:58;8.13;;;1.95;;
38851;SDS011;24605;50.092;9.182;2022-09-20T15:26:25;8.85;;;1.70;;
38851;SDS011;24605;50.092;9.182;2022-09-20T15:28:53;4.78;;;1.10;;
38851;SDS011;24605;50.092;9.182;2022-09-20T15:31:19;6.53;;;1.38;;
38851;SDS011;24605;50.092;9.182;2022-09-20T15:33:46;5.38;;;1.50;;
38851;SDS011;24605;50.092;9.182;2022-09-20T15:36:12;4.03;;;1.40;;
38851;SDS011;24605;50.092;9.182;2022-09-20T15:38:39;5.13;;;1.55;;
38851;SDS011;24605;50.092;9.182;2022-09-20T15:41:05;3.97;;;1.40;;
38851;SDS011;24605;50.092;9.182;2022-09-20T15:43:32;4.97;;;1.38;;
38851;SDS011;24605;50.092;9.182;2022-09-20T15:46:00;7.90;;;2.00;;
38851;SDS011;24605;50.092;9.182;2022-09-20T15:48:42;3.83;;;1.27;;
38851;SDS011;24605;50.092;9.182;2022-09-20T15:51:09;3.95;;;1.10;;
38851;SDS011;24605;50.092;9.182;2022-09-20T15:53:37;4.05;;;1.15;;
38851;SDS011;24605;50.092;9.182;2022-09-20T15:56:12;4.00;;;0.93;;
38851;SDS011;24605;50.092;9.182;2022-09-20T15:58:42;4.13;;;1.00;;
38851;SDS011;24605;50.092;9.182;2022-09-20T16:01:11;7.82;;;2.80;;
38851;SDS011;24605;50.092;9.182;2022-09-20T16:03:40;5.53;;;1.88;;
38851;SDS011;24605;50.092;9.182;2022-09-20T16:06:07;4.75;;;1.35;;
38851;SDS011;24605;50.092;9.182;2022-09-20T16:08:35;4.70;;;1.25;;
38851;SDS011;24605;50.092;9.182;2022-09-20T16:11:04;4.68;;;1.13;;